createdAt,value
2019-03-01T00:01:27.736Z,6.98
2019-03-01T00:05:07.419Z,6.98
2019-03-01T00:08:24.389Z,6.97
2019-03-01T00:11:42.824Z,6.95
2019-03-01T00:15:21.074Z,6.89
2019-03-01T00:19:01.409Z,6.85
2019-03-01T00:22:22.850Z,6.85
2019-03-01T00:25:51.662Z,6.79
2019-03-01T00:29:17.439Z,6.76
2019-03-01T00:33:15.643Z,6.75
2019-03-01T00:37:04.407Z,6.61
2019-03-01T00:40:06.827Z,6.69
2019-03-01T00:43:34.006Z,6.77
2019-03-01T00:46:05.981Z,6.73
2019-03-01T00:48:37.703Z,6.73
2019-03-01T00:51:09.404Z,6.71
2019-03-01T00:53:41.161Z,6.59
2019-03-01T00:56:12.478Z,6.61
2019-03-01T00:58:44.164Z,6.69
2019-03-01T01:01:15.644Z,6.71
2019-03-01T01:03:47.271Z,6.66
2019-03-01T01:06:18.631Z,6.60
2019-03-01T01:08:50.259Z,6.54
2019-03-01T01:11:21.709Z,6.58
2019-03-01T01:13:53.355Z,6.58
2019-03-01T01:16:25.428Z,6.54
2019-03-01T01:18:57.037Z,6.50
2019-03-01T01:21:30.293Z,6.50
2019-03-01T01:24:02.549Z,6.54
2019-03-01T01:26:33.815Z,6.57
2019-03-01T01:29:05.449Z,6.60
2019-03-01T01:31:36.762Z,6.60
2019-03-01T01:34:08.087Z,6.63
2019-03-01T01:36:39.388Z,6.65
2019-03-01T01:39:11.567Z,6.63
2019-03-01T01:41:43.617Z,6.67
2019-03-01T01:44:15.288Z,6.70
2019-03-01T01:46:46.620Z,6.71
2019-03-01T01:49:19.277Z,6.76
2019-03-01T01:51:50.827Z,6.78
2019-03-01T01:54:22.142Z,6.76
2019-03-01T01:56:53.783Z,6.77
2019-03-01T01:59:25.141Z,6.78
2019-03-01T02:01:56.441Z,6.81
2019-03-01T02:04:28.270Z,6.79
2019-03-01T02:06:59.567Z,6.82
2019-03-01T02:09:31.306Z,6.82
2019-03-01T02:12:03.489Z,6.86
2019-03-01T02:14:35.180Z,6.87
2019-03-01T02:17:07.673Z,6.88
2019-03-01T02:19:39.290Z,6.90
2019-03-01T02:22:10.916Z,6.92
2019-03-01T02:24:42.543Z,6.89
2019-03-01T02:27:25.314Z,6.94
2019-03-01T02:29:56.817Z,6.94
2019-03-01T02:32:49.181Z,6.95
2019-03-01T02:35:25.763Z,6.94
2019-03-01T02:37:57.071Z,6.98
2019-03-01T02:40:28.632Z,6.98
2019-03-01T02:43:00.193Z,7.01
2019-03-01T02:45:31.826Z,7.00
2019-03-01T02:48:03.298Z,7.02
2019-03-01T02:50:35.001Z,7.05
2019-03-01T02:53:07.963Z,7.05
2019-03-01T02:55:39.315Z,7.09
2019-03-01T02:58:10.960Z,7.07
2019-03-01T03:00:42.256Z,7.05
2019-03-01T03:03:13.689Z,7.03
2019-03-01T03:06:00.363Z,7.04
2019-03-01T03:08:31.676Z,7.06
2019-03-01T03:11:03.488Z,7.07
2019-03-01T03:13:35.252Z,7.09
2019-03-01T03:16:06.907Z,7.07
2019-03-01T03:18:38.618Z,6.93
2019-03-01T03:21:11.559Z,6.80
2019-03-01T03:23:42.809Z,6.86
2019-03-01T03:26:14.195Z,6.92
2019-03-01T03:28:45.930Z,6.93
2019-03-01T03:31:17.310Z,7.11
2019-03-01T03:33:48.714Z,7.09
2019-03-01T03:36:20.442Z,7.25
2019-03-01T03:38:51.755Z,7.19
2019-03-01T03:41:23.075Z,7.16
2019-03-01T03:43:54.355Z,7.16
2019-03-01T03:46:26.048Z,7.18
2019-03-01T03:48:57.564Z,7.24
2019-03-01T03:51:28.953Z,7.21
2019-03-01T03:54:00.279Z,7.22
2019-03-01T03:56:31.958Z,7.22
2019-03-01T03:59:04.144Z,7.23
2019-03-01T04:01:36.185Z,7.21
2019-03-01T04:04:07.514Z,7.21
2019-03-01T04:06:38.854Z,7.23
2019-03-01T04:09:10.646Z,7.24
2019-03-01T04:11:42.558Z,7.24
2019-03-01T04:14:13.897Z,7.23
2019-03-01T04:16:45.560Z,7.19
2019-03-01T04:19:17.276Z,7.09
2019-03-01T04:21:49.050Z,7.09
2019-03-01T04:24:20.481Z,7.15
2019-03-01T04:26:51.786Z,7.15
2019-03-01T04:29:23.073Z,7.16
2019-03-01T04:31:54.671Z,7.14
2019-03-01T04:34:26.570Z,7.16
2019-03-01T04:36:57.886Z,7.16
2019-03-01T04:39:29.299Z,7.08
2019-03-01T04:42:00.620Z,7.07
2019-03-01T04:44:32.859Z,7.12
2019-03-01T04:47:04.845Z,7.12
2019-03-01T04:49:36.177Z,7.13
2019-03-01T04:52:30.343Z,7.12
2019-03-01T04:55:01.675Z,7.09
2019-03-01T04:57:33.649Z,6.99
2019-03-01T05:00:05.993Z,7.02
2019-03-01T05:02:37.344Z,7.05
2019-03-01T05:05:09.020Z,7.02
2019-03-01T05:07:40.460Z,6.83
2019-03-01T05:10:12.774Z,6.80
2019-03-01T05:12:45.932Z,6.89
2019-03-01T05:15:19.943Z,6.86
2019-03-01T05:17:52.471Z,6.80
2019-03-01T05:20:24.105Z,6.89
2019-03-01T05:22:55.413Z,6.89
2019-03-01T05:25:26.798Z,6.92
2019-03-01T05:27:58.482Z,6.95
2019-03-01T05:30:30.238Z,6.96
2019-03-01T05:33:02.511Z,6.90
2019-03-01T05:35:33.903Z,6.97
2019-03-01T05:38:05.584Z,6.94
2019-03-01T05:40:36.976Z,6.81
2019-03-01T05:43:08.579Z,6.82
2019-03-01T05:45:41.199Z,6.78
2019-03-01T05:48:12.796Z,6.75
2019-03-01T05:57:08.782Z,6.92
2019-03-01T05:59:40.357Z,6.84
2019-03-01T06:03:14.813Z,6.84
2019-03-01T06:05:46.225Z,6.92
2019-03-01T06:09:02.419Z,6.84
2019-03-01T06:12:22.995Z,6.89
2019-03-01T06:15:52.082Z,7.01
2019-03-01T06:19:29.963Z,7.02
2019-03-01T06:23:13.221Z,7.04
2019-03-01T06:26:35.673Z,7.05
2019-03-01T06:29:47.911Z,7.10
2019-03-01T06:33:30.620Z,7.09
2019-03-01T06:36:23.432Z,7.12
2019-03-01T06:40:01.356Z,7.15
2019-03-01T06:43:15.915Z,7.14
2019-03-01T06:46:32.811Z,7.17
2019-03-01T06:49:16.097Z,7.14
2019-03-01T06:51:47.373Z,7.15
2019-03-01T06:54:19.362Z,7.17
2019-03-01T06:56:51.386Z,7.19
2019-03-01T06:59:23.010Z,7.20
2019-03-01T07:01:54.445Z,7.16
2019-03-01T07:04:26.107Z,7.14
2019-03-01T07:06:57.397Z,7.18
2019-03-01T07:09:29.111Z,7.22
2019-03-01T07:12:01.215Z,7.24
2019-03-01T07:14:32.733Z,7.25
2019-03-01T07:17:04.012Z,7.28
2019-03-01T07:19:35.663Z,7.29
2019-03-01T07:22:07.276Z,7.32
2019-03-01T07:24:38.639Z,7.34
2019-03-01T07:27:12.386Z,7.34
2019-03-01T07:29:44.312Z,7.39
2019-03-01T07:32:15.652Z,7.39
2019-03-01T07:34:47.431Z,7.41
2019-03-01T07:37:19.090Z,7.43
2019-03-01T07:39:50.923Z,7.48
2019-03-01T07:42:22.286Z,7.48
2019-03-01T07:44:53.872Z,7.48
2019-03-01T07:47:25.144Z,7.51
2019-03-01T07:49:57.052Z,7.54
2019-03-01T07:52:28.468Z,7.57
2019-03-01T07:55:02.976Z,7.59
2019-03-01T07:57:34.908Z,7.58
2019-03-01T08:00:14.015Z,7.62
2019-03-01T08:02:45.688Z,7.63
2019-03-01T08:05:17.363Z,7.70
2019-03-01T08:07:56.002Z,7.74
2019-03-01T08:10:23.482Z,7.75
2019-03-01T08:12:54.905Z,7.78
2019-03-01T08:15:27.238Z,7.81
2019-03-01T08:18:00.409Z,7.86
2019-03-01T08:20:33.912Z,7.89
2019-03-01T08:23:05.382Z,7.90
2019-03-01T08:25:37.638Z,7.91
2019-03-01T08:28:09.046Z,7.93
2019-03-01T08:30:42.457Z,7.98
2019-03-01T08:33:14.569Z,8.01
2019-03-01T08:35:46.237Z,8.04
2019-03-01T08:38:17.593Z,8.05
2019-03-01T08:40:50.773Z,8.04
2019-03-01T08:43:22.169Z,8.07
2019-03-01T08:45:54.078Z,8.09
2019-03-01T08:48:26.111Z,8.10
2019-03-01T08:50:59.593Z,8.10
2019-03-01T08:53:31.012Z,8.10
2019-03-01T08:56:03.356Z,8.09
2019-03-01T08:58:37.593Z,8.03
2019-03-01T09:01:09.799Z,8.02
2019-03-01T09:03:50.052Z,8.08
2019-03-01T09:06:22.258Z,8.08
2019-03-01T09:08:54.043Z,8.07
2019-03-01T09:11:25.943Z,8.04
2019-03-01T09:13:57.275Z,7.99
2019-03-01T09:16:28.665Z,8.01
2019-03-01T09:19:00.977Z,8.04
2019-03-01T09:21:36.028Z,8.02
2019-03-01T09:24:07.339Z,7.95
2019-03-01T09:26:55.174Z,7.98
2019-03-01T09:29:27.365Z,8.03
2019-03-01T09:31:59.747Z,8.02
2019-03-01T09:34:32.902Z,7.95
2019-03-01T09:37:04.340Z,7.99
2019-03-01T09:39:35.940Z,7.99
2019-03-01T09:42:07.736Z,7.88
2019-03-01T09:44:39.343Z,7.88
2019-03-01T09:47:11.273Z,7.82
2019-03-01T09:49:42.593Z,7.92
2019-03-01T09:52:14.285Z,7.88
2019-03-01T09:54:45.589Z,7.87
2019-03-01T09:57:17.034Z,7.86
2019-03-01T09:59:48.739Z,7.93
2019-03-01T10:02:20.794Z,7.94
2019-03-01T10:04:55.226Z,7.94
2019-03-01T10:07:26.820Z,7.95
2019-03-01T10:09:58.482Z,7.94
2019-03-01T10:12:29.911Z,7.92
2019-03-01T10:15:01.312Z,7.88
2019-03-01T10:17:33.425Z,7.96
2019-03-01T10:20:05.744Z,7.96
2019-03-01T10:22:37.452Z,8.02
2019-03-01T10:25:11.013Z,8.14
2019-03-01T10:27:42.505Z,8.21
2019-03-01T10:30:19.590Z,8.25
2019-03-01T10:32:51.182Z,8.26
2019-03-01T10:35:22.570Z,8.29
2019-03-01T10:37:53.930Z,8.32
2019-03-01T10:40:25.741Z,8.30
2019-03-01T10:42:57.426Z,8.34
2019-03-01T10:45:30.072Z,8.37
2019-03-01T10:48:01.542Z,8.48
2019-03-01T10:50:33.405Z,8.48
2019-03-01T10:53:05.978Z,8.48
2019-03-01T10:55:37.427Z,8.62
2019-03-01T10:58:09.139Z,8.62
2019-03-01T11:00:40.944Z,8.64
2019-03-01T11:03:12.294Z,8.65
2019-03-01T11:05:43.644Z,8.60
2019-03-01T11:08:15.012Z,8.72
2019-03-01T11:10:46.756Z,8.75
2019-03-01T11:13:18.368Z,8.73
2019-03-01T11:15:49.744Z,8.80
2019-03-01T11:18:21.365Z,8.69
2019-03-01T11:20:52.771Z,8.75
2019-03-01T11:23:24.286Z,8.72
2019-03-01T11:25:55.926Z,8.58
2019-03-01T11:28:27.300Z,8.53
2019-03-01T11:30:58.994Z,8.51
2019-03-01T11:33:30.631Z,8.39
2019-03-01T11:36:02.375Z,8.30
2019-03-01T11:38:33.732Z,8.24
2019-03-01T11:41:05.866Z,8.13
2019-03-01T11:43:37.929Z,8.02
2019-03-01T11:46:09.415Z,8.01
2019-03-01T11:48:41.270Z,8.09
2019-03-01T11:51:13.591Z,7.99
2019-03-01T11:53:45.840Z,7.93
2019-03-01T11:56:17.312Z,7.99
2019-03-01T11:58:49.077Z,7.93
2019-03-01T12:01:21.125Z,7.91
2019-03-01T12:03:52.492Z,7.91
2019-03-01T12:06:24.235Z,7.87
2019-03-01T12:08:55.603Z,7.93
2019-03-01T12:11:27.043Z,7.69
2019-03-01T12:13:59.059Z,7.62
2019-03-01T12:16:30.748Z,7.66
2019-03-01T12:19:02.472Z,7.70
2019-03-01T12:21:35.317Z,7.61
2019-03-01T12:24:06.973Z,7.58
2019-03-01T12:26:39.127Z,7.59
2019-03-01T12:29:11.478Z,7.53
2019-03-01T12:31:43.605Z,7.47
2019-03-01T12:34:15.635Z,7.50
2019-03-01T12:36:47.591Z,7.47
2019-03-01T12:39:20.205Z,7.35
2019-03-01T12:41:52.041Z,7.40
2019-03-01T12:44:23.749Z,7.39
2019-03-01T12:46:56.026Z,7.25
2019-03-01T12:49:28.048Z,7.21
2019-03-01T12:51:59.436Z,7.28
2019-03-01T12:54:31.230Z,7.23
2019-03-01T12:57:02.738Z,7.26
2019-03-01T12:59:35.141Z,7.26
2019-03-01T13:02:06.645Z,7.21
2019-03-01T13:04:39.106Z,7.21
2019-03-01T13:07:13.243Z,7.08
2019-03-01T13:09:43.882Z,6.97
2019-03-01T13:12:16.275Z,6.87
2019-03-01T13:14:47.975Z,6.83
2019-03-01T13:17:19.352Z,6.86
2019-03-01T13:19:50.640Z,6.78
2019-03-01T13:22:24.814Z,6.76
2019-03-01T13:24:55.568Z,6.79
2019-03-01T13:27:26.921Z,6.89
2019-03-01T13:29:58.638Z,6.81
2019-03-01T13:32:32.046Z,6.75
2019-03-01T13:35:03.699Z,6.66
2019-03-01T13:37:35.409Z,6.75
2019-03-01T13:40:07.886Z,6.76
2019-03-01T13:42:40.644Z,6.80
2019-03-01T13:45:15.784Z,6.85
2019-03-01T13:47:47.722Z,6.70
2019-03-01T13:50:19.624Z,6.81
2019-03-01T13:52:51.291Z,6.72
2019-03-01T13:55:23.744Z,6.60
2019-03-01T13:57:58.427Z,6.62
2019-03-01T14:00:29.821Z,6.75
2019-03-01T14:03:02.361Z,6.66
2019-03-01T14:05:33.680Z,6.68
2019-03-01T14:08:09.035Z,6.74
2019-03-01T14:10:38.465Z,6.68
2019-03-01T14:13:14.134Z,6.78
2019-03-01T14:15:44.145Z,6.73
2019-03-01T14:18:15.461Z,6.86
2019-03-01T14:20:47.075Z,6.84
2019-03-01T14:23:21.225Z,6.84
2019-03-01T14:25:52.131Z,6.77
2019-03-01T14:28:23.837Z,6.81
2019-03-01T14:30:55.295Z,6.63
2019-03-01T14:33:32.901Z,6.60
2019-03-01T14:36:02.718Z,6.71
2019-03-01T14:38:34.928Z,6.78
2019-03-01T14:41:06.248Z,6.60
2019-03-01T14:43:37.796Z,6.72
2019-03-01T14:46:09.435Z,6.76
2019-03-01T14:48:42.955Z,6.66
2019-03-01T14:51:14.004Z,6.53
2019-03-01T14:53:46.049Z,6.54
2019-03-01T14:56:31.234Z,6.54
2019-03-01T14:59:58.800Z,6.51
2019-03-01T15:03:15.913Z,6.57
2019-03-01T15:05:43.730Z,6.44
2019-03-01T15:08:15.448Z,6.49
2019-03-01T15:10:47.160Z,6.42
2019-03-01T15:13:18.531Z,6.33
2019-03-01T15:15:51.245Z,6.33
2019-03-01T15:18:24.975Z,6.40
2019-03-01T15:21:01.434Z,6.42
2019-03-01T15:23:29.641Z,6.39
2019-03-01T15:26:01.250Z,6.29
2019-03-01T15:28:32.829Z,6.27
2019-03-01T15:31:04.534Z,6.14
2019-03-01T15:33:35.854Z,6.18
2019-03-01T15:36:07.175Z,6.16
2019-03-01T15:38:38.483Z,6.14
2019-03-01T15:41:09.882Z,6.19
2019-03-01T15:43:41.283Z,6.12
2019-03-01T15:46:14.406Z,6.07
2019-03-01T15:48:46.587Z,6.09
2019-03-01T15:51:17.948Z,6.06
2019-03-01T15:53:49.299Z,6.00
2019-03-01T15:56:22.096Z,5.84
2019-03-01T15:58:53.953Z,5.89
2019-03-01T16:01:25.409Z,5.80
2019-03-01T16:03:57.171Z,5.73
2019-03-01T16:06:29.710Z,5.69
2019-03-01T16:09:01.671Z,5.72
2019-03-01T16:11:32.970Z,5.79
2019-03-01T16:14:04.561Z,5.64
2019-03-01T16:16:35.882Z,5.55
2019-03-01T16:19:07.228Z,5.58
2019-03-01T16:21:39.793Z,5.52
2019-03-01T16:24:11.478Z,5.48
2019-03-01T16:26:42.752Z,5.46
2019-03-01T16:29:14.307Z,5.44
2019-03-01T16:31:45.622Z,5.41
2019-03-01T16:34:17.443Z,5.44
2019-03-01T16:36:51.794Z,5.50
2019-03-01T16:39:23.874Z,5.49
2019-03-01T16:41:56.857Z,5.52
2019-03-01T16:44:28.651Z,5.47
2019-03-01T16:47:00.309Z,5.39
2019-03-01T16:49:31.668Z,5.42
2019-03-01T16:52:03.047Z,5.27
2019-03-01T16:54:35.124Z,5.41
2019-03-01T16:57:06.715Z,5.40
2019-03-01T16:59:39.582Z,5.33
2019-03-01T17:02:11.361Z,5.27
2019-03-01T17:04:42.659Z,5.37
2019-03-01T17:07:14.120Z,5.35
2019-03-01T17:09:47.281Z,5.33
2019-03-01T17:12:19.577Z,5.35
2019-03-01T17:14:51.148Z,5.30
2019-03-01T17:17:22.842Z,5.31
2019-03-01T17:19:54.411Z,5.27
2019-03-01T17:22:27.626Z,5.22
2019-03-01T17:25:00.122Z,5.26
2019-03-01T17:27:31.551Z,5.24
2019-03-01T17:30:03.107Z,5.23
2019-03-01T17:32:36.941Z,5.22
2019-03-01T17:35:10.048Z,5.17
2019-03-01T17:37:41.708Z,5.14
2019-03-01T17:40:13.293Z,5.16
2019-03-01T17:42:45.293Z,5.10
2019-03-01T17:45:20.980Z,5.08
2019-03-01T17:47:51.453Z,5.15
2019-03-01T17:50:22.854Z,5.12
2019-03-01T17:52:54.453Z,5.07
2019-03-01T17:55:25.782Z,5.10
2019-03-01T17:57:57.136Z,5.09
2019-03-01T18:00:34.938Z,5.10
2019-03-01T18:03:07.319Z,5.10
2019-03-01T18:05:40.574Z,5.07
2019-03-01T18:08:14.018Z,5.06
2019-03-01T18:10:46.043Z,5.04
2019-03-01T18:13:17.675Z,5.00
2019-03-01T18:15:49.676Z,4.98
2019-03-01T18:18:21.789Z,4.96
2019-03-01T18:20:53.129Z,4.98
2019-03-01T18:23:24.784Z,4.98
2019-03-01T18:25:56.166Z,4.98
2019-03-01T18:28:28.369Z,4.94
2019-03-01T18:31:00.590Z,4.96
2019-03-01T18:33:32.278Z,4.94
2019-03-01T18:36:03.777Z,4.97
2019-03-01T18:38:38.068Z,4.90
2019-03-01T18:41:11.068Z,4.87
2019-03-01T18:43:45.863Z,4.89
2019-03-01T18:46:19.243Z,4.82
2019-03-01T18:48:49.371Z,4.88
2019-03-01T18:51:20.795Z,4.82
2019-03-01T18:53:52.734Z,4.85
2019-03-01T18:56:24.996Z,4.80
2019-03-01T18:58:57.599Z,4.77
2019-03-01T19:01:29.165Z,4.83
2019-03-01T19:04:01.177Z,4.80
2019-03-01T19:06:32.642Z,4.83
2019-03-01T19:09:05.429Z,4.84
2019-03-01T19:11:37.953Z,4.82
2019-03-01T19:14:10.019Z,4.82
2019-03-01T19:16:41.331Z,4.79
2019-03-01T19:19:13.384Z,4.76
2019-03-01T19:21:44.681Z,4.77
2019-03-01T19:24:16.381Z,4.77
2019-03-01T19:26:47.800Z,4.76
2019-03-01T19:29:20.973Z,4.74
2019-03-01T19:31:52.576Z,4.72
2019-03-01T19:34:24.254Z,4.76
2019-03-01T19:36:55.576Z,4.78
2019-03-01T19:39:26.906Z,4.75
2019-03-01T19:41:59.244Z,4.70
2019-03-01T19:44:31.122Z,4.67
2019-03-01T19:47:02.858Z,4.71
2019-03-01T19:49:35.079Z,4.73
2019-03-01T19:52:09.370Z,4.69
2019-03-01T19:54:39.541Z,4.62
2019-03-01T19:57:10.944Z,4.59
2019-03-01T19:59:42.258Z,4.56
2019-03-01T20:02:13.665Z,4.59
2019-03-01T20:04:45.766Z,4.56
2019-03-01T20:07:19.751Z,4.56
2019-03-01T20:09:50.630Z,4.55
2019-03-01T20:12:22.134Z,4.52
2019-03-01T20:14:55.877Z,4.55
2019-03-01T20:17:30.309Z,4.52
2019-03-01T20:20:00.755Z,4.49
2019-03-01T20:22:32.504Z,4.49
2019-03-01T20:25:04.839Z,4.49
2019-03-01T20:27:39.041Z,4.45
2019-03-01T20:30:17.614Z,4.45
2019-03-01T20:32:51.074Z,4.45
2019-03-01T20:35:22.296Z,4.48
2019-03-01T20:37:53.640Z,4.49
2019-03-01T20:40:26.735Z,4.50
2019-03-01T20:43:01.219Z,4.47
2019-03-01T20:45:31.410Z,4.53
2019-03-01T20:48:03.058Z,4.55
2019-03-01T20:50:36.425Z,4.56
2019-03-01T20:53:10.092Z,4.53
2019-03-01T20:55:40.351Z,4.46
2019-03-01T20:58:12.406Z,4.44
2019-03-01T21:00:43.975Z,4.40
2019-03-01T21:03:15.737Z,4.40
2019-03-01T21:05:47.356Z,4.40
2019-03-01T21:08:18.708Z,4.39
2019-03-01T21:10:50.865Z,4.40
2019-03-01T21:13:25.397Z,4.38
2019-03-01T21:15:56.786Z,4.40
2019-03-01T21:18:30.821Z,4.36
2019-03-01T21:21:01.341Z,4.38
2019-03-01T21:23:32.834Z,4.41
2019-03-01T21:26:04.598Z,4.39
2019-03-01T21:28:36.618Z,4.41
2019-03-01T21:31:09.187Z,4.42
2019-03-01T21:33:40.515Z,4.40
2019-03-01T21:36:13.093Z,4.35
2019-03-01T21:38:45.632Z,4.31
2019-03-01T21:41:17.784Z,4.29
2019-03-01T21:43:52.714Z,4.28
2019-03-01T21:46:24.184Z,4.27
2019-03-01T21:48:56.746Z,4.26
2019-03-01T21:51:28.959Z,4.27
2019-03-01T21:54:00.293Z,4.24
2019-03-01T21:56:31.690Z,4.21
2019-03-01T21:59:02.979Z,4.23
2019-03-01T22:01:34.270Z,4.21
2019-03-01T22:04:05.659Z,4.20
2019-03-01T22:06:40.071Z,4.16
2019-03-01T22:09:11.575Z,4.16
2019-03-01T22:11:45.804Z,4.16
2019-03-01T22:14:16.331Z,4.14
2019-03-01T22:16:48.281Z,4.13
2019-03-01T22:19:19.568Z,4.12
2019-03-01T22:21:50.873Z,4.10
2019-03-01T22:24:23.718Z,4.08
2019-03-01T22:26:55.172Z,4.07
2019-03-01T22:29:27.213Z,4.06
2019-03-01T22:31:58.614Z,4.06
2019-03-01T22:34:31.041Z,4.04
2019-03-01T22:37:04.019Z,4.07
2019-03-01T22:39:35.676Z,4.05
2019-03-01T22:42:07.032Z,4.07
2019-03-01T22:44:38.391Z,4.06
2019-03-01T22:47:10.489Z,4.06
2019-03-01T22:49:42.799Z,4.08
2019-03-01T22:52:14.112Z,4.09
2019-03-01T22:54:45.499Z,4.11
2019-03-01T22:57:19.196Z,4.13
2019-03-01T22:59:50.964Z,4.10
2019-03-01T23:02:24.377Z,4.18
2019-03-01T23:04:56.450Z,4.18
2019-03-01T23:07:27.857Z,4.19
2019-03-01T23:09:59.863Z,4.20
2019-03-01T23:12:31.470Z,4.20
2019-03-01T23:15:06.544Z,4.20
2019-03-01T23:17:35.728Z,4.22
2019-03-01T23:20:08.906Z,4.20
2019-03-01T23:22:42.682Z,4.21
2019-03-01T23:25:13.634Z,4.24
2019-03-01T23:27:46.127Z,4.25
2019-03-01T23:30:17.731Z,4.28
2019-03-01T23:32:52.646Z,4.30
2019-03-01T23:35:24.201Z,4.28
2019-03-01T23:37:55.565Z,4.28
2019-03-01T23:40:26.775Z,4.29
2019-03-01T23:42:58.413Z,4.28
2019-03-01T23:45:30.396Z,4.30
2019-03-01T23:48:02.013Z,4.33
2019-03-01T23:50:34.881Z,4.30
2019-03-01T23:53:06.586Z,4.30
2019-03-01T23:55:37.882Z,4.32
2019-03-01T23:58:09.286Z,4.33
